Main page
METAR-TAF:

METAR-TAF

Airports :

Andravida, Greece

latitude: 37-55N, longitude: 021-17E, elevation: 10 m

Current weather observation

The report was made 40 minutes ago, at 11:50 UTC
Wind 8 kt from the West
Temperature 20°C
Humidity 60%
Pressure 1013 hPa
Visibility 10 km or more
Broken clouds at a height of 2500 ft
Scattered clouds at a height of 8000 ft

METAR: LGAD 211150Z 27008KT 9999 BKN025 SCT080 20/12 Q1013

Time: 14:30 (12:30 UTC)

Forecast

The report was made 1 hour and 30 minutes ago, at 11:00 UTC
Forecast valid from 21 at 12 UTC to 21 at 21 UTC
Wind 14 kt from the West/Northwest
Visibility 10 km or more
Scattered clouds at a height of 2500 ft
Scattered clouds at a height of 8000 ft

TAF: LGAD 211100Z 2112/2121 29014KT 9999 SCT025 SCT080

Weather observations and forecasts of more than 4000 airports (METAR and TAF reports).

The available stations are represented by yellow and red dots on the map.

Hover mouse over dot to see the name of the station.

Then click to see weather observations and forecasts.

To change the map : click on the green buttons with a black cross to zoom in, on the green button with a dash to zoom out, or on the green arrows for adjacent maps.


METAR-TAF: